Time;durP1;ratioP1;P1;durP2;ratioP2;P2;SDS_P1;SDS_P2;PMS_P1;PMS_P2;Temp;Humidity;BMP_temperature;BMP_pressure;BME280_temperature;BME280_humidity;BME280_pressure;Samples;Min_cycle;Max_cycle;Signal;HPM_P1;HPM_P2
2024/01/01 00:03:45;;;;;;;10.18;3.90;;;;;;;6.80;100.00;99585.31;10511964;28;20111;-81
2024/01/01 00:08:45;;;;;;;9.98;4.43;;;;;;;6.83;100.00;99593.25;10467204;28;20041;-80
2024/01/01 00:13:46;;;;;;;6.75;3.75;;;;;;;6.89;100.00;99593.50;10476153;28;20045;-81
2024/01/01 00:18:47;;;;;;;7.43;3.55;;;;;;;6.98;100.00;99596.50;10452142;28;20456;-82
2024/01/01 00:23:47;;;;;;;8.10;3.70;;;;;;;7.07;100.00;99584.69;10478498;28;20803;-82
2024/01/01 00:28:48;;;;;;;11.60;3.50;;;;;;;7.13;100.00;99579.75;10476593;28;20131;-83
2024/01/01 00:33:48;;;;;;;12.40;3.58;;;;;;;7.19;100.00;99583.50;10464174;28;20388;-80
2024/01/01 00:38:51;;;;;;;9.88;3.25;;;;;;;7.15;100.00;99563.38;10487062;28;20139;-82
2024/01/01 00:43:51;;;;;;;12.63;4.78;;;;;;;7.13;100.00;99580.66;10478296;28;20048;-81
2024/01/01 00:48:52;;;;;;;9.50;2.95;;;;;;;7.13;100.00;99587.56;10487491;28;20059;-81
2024/01/01 00:53:52;;;;;;;10.55;4.88;;;;;;;6.68;100.00;99590.91;10476577;28;20040;-81
2024/01/01 00:58:53;;;;;;;10.85;3.97;;;;;;;6.24;100.00;99602.03;10485565;28;20124;-80
2024/01/01 01:03:53;;;;;;;8.35;3.90;;;;;;;5.97;100.00;99617.19;10505376;28;20029;-80
2024/01/01 01:08:54;;;;;;;7.18;2.88;;;;;;;5.56;100.00;99640.41;10500726;28;20384;-80
2024/01/01 01:13:56;;;;;;;10.80;4.70;;;;;;;5.34;100.00;99662.72;10526463;27;20497;-79
2024/01/01 01:18:56;;;;;;;17.40;5.30;;;;;;;5.23;100.00;99682.06;10484761;28;20500;-80
2024/01/01 01:23:58;;;;;;;11.98;4.55;;;;;;;5.18;100.00;99681.81;10500621;28;20068;-80
2024/01/01 01:28:58;;;;;;;13.93;4.43;;;;;;;5.09;100.00;99703.00;10486540;28;20040;-77
2024/01/01 01:33:59;;;;;;;18.20;4.60;;;;;;;4.97;100.00;99711.03;10489581;28;20274;-79
2024/01/01 01:38:59;;;;;;;9.02;3.78;;;;;;;4.92;100.00;99711.63;10494138;28;20063;-80
2024/01/01 01:44:00;;;;;;;16.80;4.65;;;;;;;4.87;100.00;99723.44;10490654;28;20126;-80
2024/01/01 01:49:01;;;;;;;16.02;4.68;;;;;;;4.85;100.00;99715.59;10500213;28;20040;-81
2024/01/01 01:54:02;;;;;;;15.02;7.45;;;;;;;4.81;100.00;99711.94;10532176;27;20039;-79
2024/01/01 01:59:03;;;;;;;8.95;4.10;;;;;;;4.80;100.00;99719.63;10499791;28;20556;-81
2024/01/01 02:04:03;;;;;;;10.30;3.93;;;;;;;4.81;100.00;99717.13;10482115;28;20041;-81
2024/01/01 02:09:04;;;;;;;10.68;5.18;;;;;;;4.87;100.00;99726.03;10509267;28;20056;-80
2024/01/01 02:14:11;;;;;;;12.13;3.88;;;;;;;4.89;100.00;99733.06;10472468;28;20045;-81
2024/01/01 02:19:22;;;;;;;10.55;4.47;;;;;;;4.94;100.00;99726.44;10496936;28;20101;-79
2024/01/01 02:24:23;;;;;;;15.68;5.22;;;;;;;4.96;100.00;99722.22;10510350;28;20040;-81
2024/01/01 02:29:23;;;;;;;13.40;4.43;;;;;;;5.00;100.00;99724.16;10450391;28;20476;-80
2024/01/01 02:34:25;;;;;;;18.27;6.10;;;;;;;4.98;100.00;99725.78;10430481;28;20124;-81
2024/01/01 02:39:25;;;;;;;9.23;4.80;;;;;;;5.04;100.00;99713.94;10437847;28;20025;-79
2024/01/01 02:44:25;;;;;;;13.20;3.25;;;;;;;5.17;100.00;99718.94;10402839;28;20128;-81
2024/01/01 02:49:26;;;;;;;20.55;4.10;;;;;;;5.27;100.00;99723.78;10435627;28;20152;-82
2024/01/01 02:54:27;;;;;;;21.02;5.40;;;;;;;5.24;100.00;99728.81;10478208;28;20050;-81
2024/01/01 02:59:27;;;;;;;11.52;4.43;;;;;;;5.25;100.00;99722.81;10478659;28;20043;-82
2024/01/01 03:04:30;;;;;;;18.48;4.93;;;;;;;5.28;100.00;99710.00;10438958;28;20127;-81
2024/01/01 03:09:31;;;;;;;12.90;3.95;;;;;;;5.26;100.00;99706.44;10527148;28;20037;-82
2024/01/01 03:14:31;;;;;;;8.38;3.72;;;;;;;5.22;100.00;99701.03;10488386;28;20127;-81
2024/01/01 03:19:32;;;;;;;17.65;4.30;;;;;;;5.12;100.00;99702.25;10471215;28;20048;-81
2024/01/01 03:24:32;;;;;;;21.92;4.20;;;;;;;5.09;100.00;99699.50;10448143;28;20102;-81
2024/01/01 03:29:32;;;;;;;19.30;4.65;;;;;;;5.27;100.00;99707.34;10433978;28;20141;-81
2024/01/01 03:34:34;;;;;;;18.10;7.57;;;;;;;5.44;100.00;99696.09;10420372;28;20549;-81
2024/01/01 03:39:35;;;;;;;14.60;4.70;;;;;;;5.53;100.00;99677.47;10412406;28;20041;-81
2024/01/01 03:44:35;;;;;;;12.43;5.10;;;;;;;5.54;100.00;99665.41;10425270;28;20460;-81
2024/01/01 03:49:36;;;;;;;20.42;5.80;;;;;;;5.53;100.00;99661.91;10445263;28;20033;-80
2024/01/01 03:54:36;;;;;;;13.27;3.42;;;;;;;5.52;100.00;99667.03;10482903;28;20120;-79
2024/01/01 03:59:37;;;;;;;13.63;3.30;;;;;;;5.55;100.00;99669.78;10481154;28;20619;-80
2024/01/01 04:04:37;;;;;;;14.48;4.03;;;;;;;5.60;100.00;99660.50;10480981;28;20160;-81
2024/01/01 04:09:38;;;;;;;12.55;4.90;;;;;;;5.52;100.00;99662.72;10476806;28;20085;-81
2024/01/01 04:14:38;;;;;;;16.67;4.03;;;;;;;5.66;100.00;99668.59;10446732;28;20469;-80
2024/01/01 04:19:39;;;;;;;13.98;5.13;;;;;;;5.70;100.00;99639.38;10446659;28;20048;-81
2024/01/01 04:24:43;;;;;;;24.30;3.95;;;;;;;5.67;100.00;99661.69;10433437;28;20399;-80
2024/01/01 04:29:44;;;;;;;21.95;4.03;;;;;;;5.68;100.00;99666.97;10428555;28;20041;-78
2024/01/01 04:34:44;;;;;;;14.02;5.13;;;;;;;5.67;100.00;99669.47;10460697;28;20457;-78
2024/01/01 04:39:45;;;;;;;9.20;4.18;;;;;;;5.65;100.00;99666.81;10459040;28;20060;-77
2024/01/01 04:44:45;;;;;;;16.63;5.60;;;;;;;5.67;100.00;99667.78;10500094;27;20033;-79
2024/01/01 04:49:45;;;;;;;13.85;5.03;;;;;;;5.66;100.00;99681.56;10436964;28;20687;-78
2024/01/01 04:54:46;;;;;;;16.45;5.93;;;;;;;5.63;100.00;99686.63;10429310;28;20194;-79
2024/01/01 04:59:46;;;;;;;13.05;4.95;;;;;;;5.64;100.00;99677.09;10439065;28;20108;-79
2024/01/01 05:04:47;;;;;;;10.15;3.83;;;;;;;5.63;100.00;99693.50;10447923;28;20453;-78
2024/01/01 05:09:47;;;;;;;15.30;4.03;;;;;;;5.49;100.00;99696.31;10442823;28;20044;-78
2024/01/01 05:14:48;;;;;;;16.50;4.53;;;;;;;5.51;100.00;99692.09;10476104;28;20123;-80
2024/01/01 05:19:50;;;;;;;10.32;3.20;;;;;;;5.56;100.00;99694.91;10517738;28;20063;-78
2024/01/01 05:24:50;;;;;;;12.82;4.22;;;;;;;5.75;100.00;99686.31;10482534;28;20062;-79
2024/01/01 05:29:51;;;;;;;6.25;3.78;;;;;;;5.84;100.00;99704.91;10482170;28;20169;-81
2024/01/01 05:34:51;;;;;;;14.63;3.83;;;;;;;5.80;100.00;99712.50;10493908;28;20048;-80
2024/01/01 05:39:52;;;;;;;15.00;4.80;;;;;;;5.72;100.00;99717.31;10471261;28;20457;-79
2024/01/01 05:44:52;;;;;;;16.77;3.25;;;;;;;5.71;100.00;99742.41;10476270;28;20043;-79
2024/01/01 05:49:53;;;;;;;12.93;2.65;;;;;;;5.46;100.00;99745.47;10498636;28;20131;-78
2024/01/01 05:54:53;;;;;;;6.55;3.22;;;;;;;5.29;100.00;99767.97;10472659;28;20508;-78
2024/01/01 05:59:54;;;;;;;6.32;3.33;;;;;;;5.17;100.00;99768.22;10518552;28;20040;-78
2024/01/01 06:04:54;;;;;;;8.95;2.72;;;;;;;5.10;100.00;99771.31;10458313;28;21154;-80
2024/01/01 06:09:55;;;;;;;14.77;4.47;;;;;;;4.95;100.00;99785.25;10487473;28;20044;-81
2024/01/01 06:14:56;;;;;;;10.27;4.63;;;;;;;4.96;100.00;99796.53;10487190;28;20123;-79
2024/01/01 06:19:57;;;;;;;10.77;3.15;;;;;;;5.00;100.00;99803.66;10469135;28;20634;-80
2024/01/01 06:25:03;;;;;;;13.55;3.58;;;;;;;5.10;100.00;99805.03;10494442;28;20135;-81
2024/01/01 06:30:05;;;;;;;7.03;2.10;;;;;;;5.06;100.00;99819.56;10487300;28;20123;-78
2024/01/01 06:35:06;;;;;;;12.38;3.25;;;;;;;5.09;100.00;99824.91;10493407;28;20041;-80
2024/01/01 06:40:07;;;;;;;7.30;2.35;;;;;;;5.13;100.00;99825.94;10458929;28;20045;-79
2024/01/01 06:45:09;;;;;;;9.30;3.33;;;;;;;5.13;100.00;99823.34;10410805;28;20064;-81
2024/01/01 06:50:10;;;;;;;4.93;2.25;;;;;;;5.20;100.00;99827.19;10434692;28;20275;-78
2024/01/01 06:55:10;;;;;;;5.28;2.63;;;;;;;5.24;100.00;99827.41;10436071;28;20086;-79
2024/01/01 07:00:17;;;;;;;10.57;4.20;;;;;;;5.25;100.00;99823.13;10436764;28;20051;-79
2024/01/01 07:05:19;;;;;;;6.60;1.83;;;;;;;5.29;100.00;99830.25;10464049;28;20111;-79
2024/01/01 07:10:19;;;;;;;9.70;2.25;;;;;;;5.28;100.00;99837.13;10478081;28;20032;-79
2024/01/01 07:15:20;;;;;;;12.00;2.38;;;;;;;5.34;100.00;99851.22;10485401;28;20048;-78
2024/01/01 07:20:20;;;;;;;8.82;2.55;;;;;;;5.39;100.00;99857.56;10462922;28;20071;-78
2024/01/01 07:25:20;;;;;;;3.95;1.95;;;;;;;5.42;100.00;99848.25;10485584;28;20044;-78
2024/01/01 07:30:21;;;;;;;5.40;1.73;;;;;;;5.46;100.00;99859.66;10495669;28;20111;-79
2024/01/01 07:35:21;;;;;;;4.43;1.52;;;;;;;5.43;100.00;99880.25;10495464;28;20091;-80
2024/01/01 07:40:22;;;;;;;9.07;2.65;;;;;;;5.38;100.00;99882.63;10467937;28;20036;-79
2024/01/01 07:45:23;;;;;;;6.13;2.70;;;;;;;5.24;100.00;99884.47;10482503;28;20139;-82
2024/01/01 07:50:23;;;;;;;14.57;3.42;;;;;;;5.14;100.00;99908.13;10495393;28;22419;-78
2024/01/01 07:55:23;;;;;;;8.80;2.50;;;;;;;5.11;100.00;99911.47;10543191;27;20116;-78
2024/01/01 08:00:24;;;;;;;5.47;3.05;;;;;;;5.19;100.00;99917.06;10477270;28;20120;-78
2024/01/01 08:05:26;;;;;;;7.30;2.10;;;;;;;5.27;100.00;99928.75;10489602;28;20454;-77
2024/01/01 08:10:27;;;;;;;6.30;2.47;;;;;;;5.28;100.00;99929.66;10490177;28;20040;-79
2024/01/01 08:15:28;;;;;;;9.33;3.57;;;;;;;5.25;100.00;99935.56;10498949;28;20040;-78
2024/01/01 08:20:29;;;;;;;11.90;2.83;;;;;;;5.25;100.00;99942.47;10516791;28;20560;-79
2024/01/01 08:25:29;;;;;;;6.17;2.43;;;;;;;5.28;100.00;99940.03;10520934;27;20396;-78
2024/01/01 08:30:30;;;;;;;5.68;2.13;;;;;;;5.15;100.00;99954.03;10487747;28;20039;-78
2024/01/01 08:35:31;;;;;;;15.48;2.85;;;;;;;5.19;100.00;99952.50;10507363;28;20123;-78
2024/01/01 08:40:32;;;;;;;9.23;3.00;;;;;;;5.17;100.00;99973.16;10486636;28;20076;-78
2024/01/01 08:45:32;;;;;;;15.80;3.22;;;;;;;5.13;100.00;99986.78;10514308;28;20064;-77
2024/01/01 08:50:33;;;;;;;7.28;2.58;;;;;;;5.21;100.00;99980.31;10504090;28;20040;-79
2024/01/01 08:55:34;;;;;;;5.10;1.40;;;;;;;5.24;100.00;99988.25;10469462;28;20112;-80
2024/01/01 09:00:35;;;;;;;8.93;3.63;;;;;;;5.27;100.00;99996.22;10507793;28;20033;-78
2024/01/01 09:05:35;;;;;;;4.47;1.93;;;;;;;5.44;100.00;99991.94;10477004;28;20787;-78
2024/01/01 09:10:36;;;;;;;4.18;1.85;;;;;;;5.63;100.00;99994.63;10507208;27;20052;-79
2024/01/01 09:15:37;;;;;;;7.70;3.45;;;;;;;5.72;100.00;99995.13;10469764;28;20039;-80
2024/01/01 09:20:40;;;;;;;10.63;3.38;;;;;;;5.80;100.00;100012.00;10491705;28;20048;-78
2024/01/01 09:25:41;;;;;;;6.65;3.10;;;;;;;5.81;100.00;100018.09;10477966;28;20036;-79
2024/01/01 09:30:42;;;;;;;6.95;2.88;;;;;;;5.67;100.00;100032.94;10478927;28;20384;-79
2024/01/01 09:35:42;;;;;;;7.78;2.70;;;;;;;5.56;100.00;100041.03;10442912;28;20053;-79
2024/01/01 09:40:43;;;;;;;6.68;2.08;;;;;;;5.93;100.00;100056.81;10414604;28;20112;-80
2024/01/01 09:45:46;;;;;;;11.18;3.78;;;;;;;6.34;100.00;100060.72;10400540;28;20055;-78
2024/01/01 09:50:50;;;;;;;5.63;1.75;;;;;;;6.37;100.00;100057.41;10444479;28;20044;-77
2024/01/01 09:55:52;;;;;;;11.70;3.97;;;;;;;6.76;100.00;100062.84;10473637;28;20032;-79
2024/01/01 10:00:52;;;;;;;5.65;2.92;;;;;;;6.96;100.00;100062.94;10472007;28;20115;-79
2024/01/01 10:05:53;;;;;;;8.45;2.65;;;;;;;7.01;100.00;100019.81;10498737;28;20044;-79
2024/01/01 10:10:53;;;;;;;8.57;3.25;;;;;;;6.92;100.00;100059.28;10505666;28;20130;-79
2024/01/01 10:15:56;;;;;;;10.98;2.67;;;;;;;6.85;100.00;100083.19;10498542;28;20040;-81
2024/01/01 10:21:08;;;;;;;9.30;2.38;;;;;;;6.87;100.00;100086.75;10502453;28;20040;-80
2024/01/01 10:26:12;;;;;;;8.25;2.88;;;;;;;7.34;100.00;100092.53;10480348;28;20051;-78
2024/01/01 10:31:14;;;;;;;11.63;4.43;;;;;;;7.10;100.00;100095.72;10493026;28;20040;-79
2024/01/01 10:36:16;;;;;;;9.80;2.30;;;;;;;7.02;100.00;100102.25;10467937;28;20563;-80
2024/01/01 10:41:19;;;;;;;12.15;3.65;;;;;;;7.31;100.00;100098.47;10496912;28;20040;-80
2024/01/01 10:46:19;;;;;;;5.15;2.45;;;;;;;7.20;100.00;100112.66;10475240;28;20036;-78
2024/01/01 10:51:41;;;;;;;10.15;4.85;;;;;;;7.10;100.00;100118.25;10486688;28;20496;-78
2024/01/01 10:56:56;;;;;;;10.60;4.28;;;;;;;7.02;100.00;100121.34;10455297;28;20120;-78
2024/01/01 11:01:57;;;;;;;8.88;2.92;;;;;;;6.78;100.00;100127.91;10480930;28;20041;-79
2024/01/01 11:07:02;;;;;;;10.38;3.35;;;;;;;6.90;100.00;100119.03;10514144;28;20112;-79
2024/01/01 11:12:05;;;;;;;5.35;2.50;;;;;;;6.71;100.00;100139.72;10496486;28;20522;-78
2024/01/01 11:17:10;;;;;;;6.82;2.95;;;;;;;6.72;100.00;100146.72;10503830;28;20044;-79
2024/01/01 11:22:18;;;;;;;10.55;4.57;;;;;;;6.72;100.00;100160.59;10508849;28;20055;-79
2024/01/01 11:27:31;;;;;;;7.00;2.05;;;;;;;6.99;100.00;100155.03;10499658;28;20055;-78
2024/01/01 11:32:32;;;;;;;9.07;3.85;;;;;;;7.15;100.00;100158.41;10502939;28;20713;-80
2024/01/01 11:37:36;;;;;;;7.15;2.92;;;;;;;7.17;100.00;100172.38;10477843;28;20048;-81
2024/01/01 11:42:37;;;;;;;11.50;3.03;;;;;;;7.23;100.00;100159.66;10480527;28;20108;-81
2024/01/01 11:47:41;;;;;;;8.80;3.10;;;;;;;7.14;100.00;100167.94;10474016;28;20036;-81
2024/01/01 11:52:41;;;;;;;11.20;3.75;;;;;;;7.14;100.00;100167.03;10475588;28;20036;-81
2024/01/01 11:57:42;;;;;;;7.82;3.13;;;;;;;7.37;100.00;100168.19;10486174;28;20060;-82
2024/01/01 12:02:42;;;;;;;7.85;2.97;;;;;;;7.70;100.00;100165.44;10471460;28;20131;-81
2024/01/01 12:07:43;;;;;;;22.58;7.20;;;;;;;7.90;100.00;100174.19;10508569;28;20115;-80
2024/01/01 12:12:44;;;;;;;19.73;5.20;;;;;;;8.08;100.00;100175.84;10509758;28;20093;-81
2024/01/01 12:17:46;;;;;;;10.40;3.90;;;;;;;8.27;100.00;100180.22;10462354;28;20119;-82
2024/01/01 12:22:49;;;;;;;11.75;4.30;;;;;;;7.92;100.00;100184.69;10515269;28;20147;-82
2024/01/01 12:28:08;;;;;;;11.90;3.65;;;;;;;7.58;100.00;100183.94;10490934;28;20032;-80
2024/01/01 12:33:12;;;;;;;19.58;5.03;;;;;;;7.33;100.00;100184.47;10472319;28;20044;-82
2024/01/01 12:38:12;;;;;;;14.07;5.63;;;;;;;7.43;100.00;100180.59;10503046;28;20040;-80
2024/01/01 12:43:12;;;;;;;20.45;5.32;;;;;;;7.29;100.00;100192.94;10539771;27;20050;-82
2024/01/01 12:48:13;;;;;;;11.70;4.57;;;;;;;7.24;100.00;100192.69;10503157;28;20121;-81
2024/01/01 12:53:14;;;;;;;13.70;4.22;;;;;;;7.21;100.00;100192.53;10500272;28;20049;-80
2024/01/01 12:58:14;;;;;;;23.10;6.25;;;;;;;7.09;100.00;100194.53;10491105;28;20067;-80
2024/01/01 13:03:15;;;;;;;16.10;5.22;;;;;;;7.01;100.00;100199.34;10510532;27;20036;-80
2024/01/01 13:08:15;;;;;;;22.48;7.20;;;;;;;6.97;100.00;100184.41;10512692;28;20453;-80
2024/01/01 13:13:16;;;;;;;9.90;4.55;;;;;;;6.94;100.00;100211.13;10464590;28;20086;-80
2024/01/01 13:18:16;;;;;;;11.85;6.07;;;;;;;6.95;100.00;100207.72;10430888;28;20049;-82
2024/01/01 13:23:17;;;;;;;14.77;4.97;;;;;;;6.96;100.00;100204.28;10451723;28;20060;-78
2024/01/01 13:28:27;;;;;;;15.70;5.25;;;;;;;7.01;100.00;100214.97;10472964;28;20047;-78
2024/01/01 13:33:27;;;;;;;18.73;4.60;;;;;;;7.01;100.00;100202.81;10498129;28;20045;-78
2024/01/01 13:38:28;;;;;;;16.00;5.97;;;;;;;6.99;100.00;100216.59;10496387;28;20036;-78
2024/01/01 13:43:28;;;;;;;17.63;4.88;;;;;;;7.12;100.00;100216.41;10497490;28;20029;-79
2024/01/01 13:48:30;;;;;;;13.93;5.20;;;;;;;7.53;100.00;100214.06;10502954;28;20123;-80
2024/01/01 13:53:33;;;;;;;8.23;4.28;;;;;;;8.12;100.00;100227.31;10499182;28;20447;-79
2024/01/01 13:58:34;;;;;;;15.13;5.97;;;;;;;8.32;100.00;100220.44;10506159;27;20094;-79
2024/01/01 14:03:43;;;;;;;13.48;4.10;;;;;;;8.14;100.00;100216.97;10504926;27;20414;-79
2024/01/01 14:08:44;;;;;;;10.82;5.32;;;;;;;7.98;100.00;100230.97;10465348;28;20072;-81
2024/01/01 14:13:44;;;;;;;10.18;5.00;;;;;;;7.81;100.00;100230.19;10456295;28;20644;-78
2024/01/01 14:18:45;;;;;;;17.55;4.38;;;;;;;7.50;100.00;100232.16;10467042;28;20041;-80
2024/01/01 14:23:47;;;;;;;16.00;4.32;;;;;;;7.18;100.00;100244.44;10459129;28;20041;-80
2024/01/01 14:28:48;;;;;;;18.52;5.00;;;;;;;6.78;100.00;100250.16;10471676;28;20439;-80
2024/01/01 14:33:48;;;;;;;22.33;5.70;;;;;;;6.52;100.00;100253.16;10490725;28;20090;-80
2024/01/01 14:38:49;;;;;;;15.63;5.95;;;;;;;6.28;100.00;100268.31;10458450;28;20073;-81
2024/01/01 14:43:50;;;;;;;13.75;5.68;;;;;;;6.07;100.00;100261.09;10468015;28;20175;-80
2024/01/01 14:48:50;;;;;;;13.27;5.70;;;;;;;5.94;100.00;100266.38;10519635;28;20047;-81
2024/01/01 14:53:51;;;;;;;12.18;5.65;;;;;;;5.75;100.00;100278.31;10458079;28;20072;-83
2024/01/01 14:58:51;;;;;;;13.93;4.97;;;;;;;5.64;100.00;100287.19;10493818;27;20054;-81
2024/01/01 15:03:52;;;;;;;21.80;6.10;;;;;;;5.55;100.00;100283.25;10501150;27;20036;-82
2024/01/01 15:08:53;;;;;;;17.17;4.13;;;;;;;5.47;100.00;100305.25;10466009;28;20154;-82
2024/01/01 15:13:53;;;;;;;15.55;5.25;;;;;;;5.50;100.00;100302.84;10444622;28;20552;-82
2024/01/01 15:18:54;;;;;;;13.15;7.05;;;;;;;5.51;100.00;100302.03;10438020;28;20098;-80
2024/01/01 15:23:55;;;;;;;16.67;5.75;;;;;;;5.42;100.00;100310.19;10447581;28;20127;-80
2024/01/01 15:28:55;;;;;;;11.85;5.15;;;;;;;5.34;100.00;100306.25;10451491;28;20074;-80
2024/01/01 15:33:56;;;;;;;15.50;5.18;;;;;;;5.28;100.00;100316.25;10450178;28;20044;-80
2024/01/01 15:38:56;;;;;;;21.35;5.45;;;;;;;5.23;100.00;100313.38;10441790;28;20510;-81
2024/01/01 15:43:57;;;;;;;16.08;5.53;;;;;;;5.18;100.00;100321.69;10453489;28;20124;-80
2024/01/01 15:48:57;;;;;;;10.75;4.80;;;;;;;5.30;100.00;100330.22;10464290;28;20124;-80
2024/01/01 15:53:58;;;;;;;15.38;5.72;;;;;;;5.21;100.00;100334.84;10429725;28;20074;-81
2024/01/01 15:58:59;;;;;;;17.63;4.05;;;;;;;5.17;100.00;100338.06;10495571;28;20540;-81
2024/01/01 16:04:00;;;;;;;13.65;5.18;;;;;;;5.10;100.00;100347.16;10445716;28;20057;-81
2024/01/01 16:09:00;;;;;;;28.58;5.55;;;;;;;5.18;100.00;100347.66;10440365;28;20550;-80
2024/01/01 16:14:01;;;;;;;21.45;7.07;;;;;;;5.34;100.00;100354.66;10444860;28;20163;-81
2024/01/01 16:19:02;;;;;;;12.52;4.95;;;;;;;5.32;100.00;100346.78;10440309;28;20119;-81
2024/01/01 16:24:02;;;;;;;10.40;4.10;;;;;;;5.31;100.00;100357.06;10439681;28;20424;-82
2024/01/01 16:29:03;;;;;;;14.25;4.90;;;;;;;5.40;100.00;100342.03;10441894;28;20155;-81
2024/01/01 16:34:04;;;;;;;19.25;7.13;;;;;;;5.44;100.00;100341.41;10407881;28;20044;-80
2024/01/01 16:39:05;;;;;;;13.80;5.32;;;;;;;5.46;100.00;100344.13;10443712;28;20079;-81
2024/01/01 16:44:05;;;;;;;15.98;4.53;;;;;;;5.49;100.00;100350.38;10441634;28;20157;-82
2024/01/01 16:49:09;;;;;;;14.63;4.38;;;;;;;5.47;100.00;100351.97;10439245;28;20128;-82
2024/01/01 16:54:09;;;;;;;11.07;4.05;;;;;;;5.37;100.00;100347.03;10430615;28;20036;-82
2024/01/01 16:59:10;;;;;;;14.68;4.28;;;;;;;5.37;100.00;100344.44;10445455;28;20155;-82
2024/01/01 17:04:11;;;;;;;22.52;4.53;;;;;;;5.41;100.00;100356.81;10454612;28;20132;-83
2024/01/01 17:09:13;;;;;;;13.50;4.90;;;;;;;5.42;100.00;100353.41;10467550;28;20040;-83
2024/01/01 17:14:14;;;;;;;;;;;;;;;5.39;100.00;100353.22;10457140;28;20509;-82
2024/01/01 17:19:14;;;;;;;19.58;4.80;;;;;;;5.43;100.00;100348.31;10449944;28;20429;-82
2024/01/01 17:24:15;;;;;;;12.38;3.85;;;;;;;5.51;100.00;100340.09;10427098;28;20124;-83
2024/01/01 17:29:15;;;;;;;10.88;3.65;;;;;;;5.51;100.00;100346.16;10404859;28;20060;-83
2024/01/01 17:34:16;;;;;;;12.32;4.28;;;;;;;5.54;100.00;100348.06;10408540;28;20900;-83
2024/01/01 17:39:16;;;;;;;28.15;4.55;;;;;;;5.65;100.00;100346.09;10400924;28;20124;-82
2024/01/01 17:44:17;;;;;;;11.48;5.57;;;;;;;5.68;100.00;100339.41;10440106;28;20045;-81
2024/01/01 17:49:17;;;;;;;17.13;5.68;;;;;;;5.66;100.00;100353.06;10475184;28;20119;-81
2024/01/01 17:54:18;;;;;;;13.00;4.85;;;;;;;5.66;100.00;100358.28;10461516;28;20036;-81
2024/01/01 17:59:18;;;;;;;9.75;4.43;;;;;;;5.64;100.00;100352.09;10415864;28;20085;-81
2024/01/01 18:04:21;;;;;;;14.60;4.07;;;;;;;5.65;100.00;100348.69;10414845;28;20063;-81
2024/01/01 18:09:22;;;;;;;16.85;5.47;;;;;;;5.64;100.00;100346.91;10437997;28;20120;-81
2024/01/01 18:14:23;;;;;;;10.68;4.35;;;;;;;5.60;100.00;100340.66;10453702;28;20047;-81
2024/01/01 18:19:23;;;;;;;10.98;3.17;;;;;;;5.66;100.00;100337.50;10452863;28;20049;-80
2024/01/01 18:24:24;;;;;;;9.93;3.58;;;;;;;5.69;100.00;100332.50;10435433;28;20061;-81
2024/01/01 18:29:24;;;;;;;15.27;4.95;;;;;;;5.63;100.00;100334.72;10406968;28;20137;-80
2024/01/01 18:34:25;;;;;;;11.10;3.97;;;;;;;5.76;100.00;100337.22;10450832;28;20041;-80
2024/01/01 18:39:25;;;;;;;8.70;3.10;;;;;;;5.88;100.00;100330.16;10426513;28;20497;-80
2024/01/01 18:44:25;;;;;;;7.05;2.42;;;;;;;5.99;100.00;100320.41;10412929;28;20072;-80
2024/01/01 18:49:26;;;;;;;8.57;1.73;;;;;;;6.00;100.00;100323.88;10464438;28;20028;-80
2024/01/01 18:54:28;;;;;;;2.55;1.02;;;;;;;6.00;100.00;100319.63;10474413;28;20127;-82
2024/01/01 18:59:28;;;;;;;6.85;1.83;;;;;;;6.11;100.00;100315.03;10446509;28;20033;-82
2024/01/01 19:04:32;;;;;;;4.25;1.50;;;;;;;6.13;100.00;100320.31;10465670;28;20043;-81
2024/01/01 19:09:33;;;;;;;4.78;0.93;;;;;;;6.10;100.00;100314.97;10411577;28;20049;-82
2024/01/01 19:14:34;;;;;;;2.08;0.75;;;;;;;6.07;100.00;100312.19;10411222;28;20124;-81
2024/01/01 19:19:37;;;;;;;2.17;1.38;;;;;;;6.02;100.00;100324.91;10410274;28;20052;-82
2024/01/01 19:24:37;;;;;;;4.47;0.77;;;;;;;5.95;100.00;100307.13;10466618;28;20119;-81
2024/01/01 19:29:38;;;;;;;3.70;1.42;;;;;;;5.89;100.00;100310.28;10431047;28;20066;-81
2024/01/01 19:34:42;;;;;;;3.17;1.20;;;;;;;5.83;100.00;100313.41;10463369;28;20041;-81
2024/01/01 19:39:43;;;;;;;8.48;1.48;;;;;;;5.84;100.00;100301.34;10468362;28;20040;-81
2024/01/01 19:44:43;;;;;;;8.23;3.10;;;;;;;5.84;100.00;100303.94;10458727;28;20362;-81
2024/01/01 19:49:44;;;;;;;9.25;3.88;;;;;;;5.90;100.00;100301.69;10475179;28;20032;-81
2024/01/01 19:54:45;;;;;;;11.00;3.65;;;;;;;6.01;100.00;100302.31;10429171;28;20060;-80
2024/01/01 19:59:45;;;;;;;11.90;4.03;;;;;;;5.97;100.00;100289.94;10451937;28;20249;-80
2024/01/01 20:04:46;;;;;;;11.20;3.25;;;;;;;5.87;100.00;100281.63;10407157;28;20100;-83
2024/01/01 20:09:46;;;;;;;10.00;3.38;;;;;;;5.87;100.00;100267.75;10421512;28;20037;-82
2024/01/01 20:14:47;;;;;;;8.90;3.80;;;;;;;5.82;100.00;100262.28;10410102;28;20112;-81
2024/01/01 20:19:47;;;;;;;10.75;3.20;;;;;;;5.67;100.00;100249.34;10391395;28;20060;-81
2024/01/01 20:24:48;;;;;;;9.30;3.45;;;;;;;5.40;100.00;100252.13;10457198;28;20049;-80
2024/01/01 20:29:48;;;;;;;13.18;4.47;;;;;;;5.18;100.00;100254.25;10435087;28;20892;-81
2024/01/01 20:34:49;;;;;;;6.75;3.05;;;;;;;4.98;100.00;100246.16;10432400;28;20433;-80
2024/01/01 20:39:49;;;;;;;14.35;4.75;;;;;;;4.80;100.00;100244.25;10427719;28;20131;-84
2024/01/01 20:44:50;;;;;;;10.07;4.72;;;;;;;4.71;100.00;100235.91;10448240;28;20041;-81
2024/01/01 20:49:52;;;;;;;17.95;4.25;;;;;;;4.66;100.00;100245.09;10406884;28;20504;-82
2024/01/01 20:54:52;;;;;;;11.65;4.93;;;;;;;4.60;100.00;100247.31;10416436;28;20144;-82
2024/01/01 20:59:53;;;;;;;16.83;3.95;;;;;;;4.51;100.00;100232.09;10404515;28;20036;-82
2024/01/01 21:04:53;;;;;;;13.90;5.85;;;;;;;4.53;100.00;100225.28;10405989;28;20075;-81
2024/01/01 21:09:54;;;;;;;11.50;5.28;;;;;;;4.50;100.00;100226.03;10396187;28;20061;-81
2024/01/01 21:14:55;;;;;;;15.65;5.47;;;;;;;4.54;100.00;100228.00;10421584;28;20056;-81
2024/01/01 21:19:55;;;;;;;10.80;5.38;;;;;;;4.59;100.00;100219.63;10404109;28;20140;-82
2024/01/01 21:24:56;;;;;;;17.13;5.88;;;;;;;4.58;100.00;100200.56;10411621;28;20132;-81
2024/01/01 21:29:56;;;;;;;20.88;5.40;;;;;;;4.59;100.00;100201.47;10441070;28;20055;-80
2024/01/01 21:34:57;;;;;;;13.95;4.95;;;;;;;4.66;100.00;100190.66;10439693;28;20055;-82
2024/01/01 21:39:57;;;;;;;21.90;4.70;;;;;;;4.66;100.00;100191.56;10441185;28;20509;-79
2024/01/01 21:44:58;;;;;;;13.13;4.95;;;;;;;4.66;100.00;100180.31;10465368;28;20062;-81
2024/01/01 21:50:02;;;;;;;18.13;6.07;;;;;;;4.77;100.00;100175.75;10416902;28;20053;-81
2024/01/01 21:55:03;;;;;;;26.30;6.05;;;;;;;4.89;100.00;100152.25;10407049;28;20049;-81
2024/01/01 22:00:04;;;;;;;16.67;4.77;;;;;;;5.00;100.00;100148.59;10464864;28;20090;-79
2024/01/01 22:05:05;;;;;;;15.90;6.75;;;;;;;5.07;100.00;100140.38;10479032;28;20043;-80
2024/01/01 22:10:06;;;;;;;20.77;5.97;;;;;;;5.17;100.00;100118.44;10448685;28;20400;-80
2024/01/01 22:15:08;;;;;;;14.80;6.67;;;;;;;5.28;100.00;100111.28;10471751;28;20037;-80
2024/01/01 22:20:09;;;;;;;9.30;4.78;;;;;;;5.43;100.00;100087.88;10449161;28;20041;-81
2024/01/01 22:25:09;;;;;;;13.60;4.95;;;;;;;5.48;100.00;100069.97;10480664;28;20493;-81
2024/01/01 22:30:10;;;;;;;10.07;3.95;;;;;;;5.62;100.00;100052.56;10416684;28;20389;-81
2024/01/01 22:35:12;;;;;;;12.07;4.70;;;;;;;5.68;100.00;100027.81;10417448;28;20041;-81
2024/01/01 22:40:12;;;;;;;13.82;3.53;;;;;;;5.81;100.00;100018.09;10430558;28;20056;-81
2024/01/01 22:45:13;;;;;;;8.20;3.17;;;;;;;5.83;100.00;99980.13;10464251;28;20047;-81
2024/01/01 22:50:14;;;;;;;13.70;3.88;;;;;;;5.92;100.00;99971.91;10446690;28;20036;-81
2024/01/01 22:55:14;;;;;;;12.20;2.95;;;;;;;5.86;100.00;99954.31;10485897;28;20037;-81
2024/01/01 23:00:20;;;;;;;10.50;3.10;;;;;;;5.93;100.00;99946.03;10451165;28;20513;-81